Kirklin, Indiana
Current Conditions -  °F | °C
As of 3:15 PM on Sunday 23 Nov 2014 (Local Time) from KTYQ Reporting Station
Moderate Rain Moderate Rain  
Wind Chill: 52°   Ceiling: 2300
Heat Index: 52°   Visibility: 5mi
Dew Point: 49°   Wind: 12mph
Humidity: 89%   Direction: 130°SE
Pressure: 29.58"   Gusts: 17mph
Location:  40.19°N, 86.36°W
Report Text: KTYQ 232015Z AUTO 13010G15KT 5SM RA SCT006 BKN023 OVC033 11/09 A2958 RMK AO2 P0001 T01120094
Loading
Personal Weather Stations






























Interactive Weather Map New forecast layout! Learn more

10-Day Weather Forecast

Advertisements
Track Severe Weather on mobile